Time;durP1;ratioP1;P1;durP2;ratioP2;P2;SDS_P1;SDS_P2;PMS_P1;PMS_P2;Temp;Humidity;BMP_temperature;BMP_pressure;BME280_temperature;BME280_humidity;BME280_pressure;Samples;Min_cycle;Max_cycle;Signal;HPM_P1;HPM_P2
2023/11/28 00:00:01;;;;;;;2.93;2.63;;;;;;;;;;521541;28;1508;-72
2023/11/28 00:00:17;;;;;;;2.78;2.58;;;;;;;;;;521679;28;764;-72
2023/11/28 00:00:33;;;;;;;3.07;2.77;;;;;;;;;;522357;28;1206;-73
2023/11/28 00:00:48;;;;;;;2.88;2.67;;;;;;;;;;518486;28;1398;-73
2023/11/28 00:01:04;;;;;;;2.80;2.60;;;;;;;;;;519708;28;842;-72
2023/11/28 00:01:20;;;;;;;2.90;2.60;;;;;;;;;;521899;28;910;-74
2023/11/28 00:01:35;;;;;;;3.03;2.73;;;;;;;;;;519749;28;1134;-73
2023/11/28 00:01:51;;;;;;;3.20;2.90;;;;;;;;;;522191;28;942;-72
2023/11/28 00:02:06;;;;;;;3.05;2.75;;;;;;;;;;523977;28;834;-73
2023/11/28 00:02:22;;;;;;;2.87;2.60;;;;;;;;;;523661;28;1275;-73
2023/11/28 00:02:38;;;;;;;3.03;2.73;;;;;;;;;;522224;28;926;-72
2023/11/28 00:02:54;;;;;;;3.17;2.88;;;;;;;;;;524094;28;1042;-73
2023/11/28 00:03:09;;;;;;;3.10;2.80;;;;;;;;;;524101;28;819;-73
2023/11/28 00:03:24;;;;;;;3.03;2.73;;;;;;;;;;521965;28;1002;-72
2023/11/28 00:03:40;;;;;;;2.97;2.70;;;;;;;;;;523946;28;827;-73
2023/11/28 00:03:55;;;;;;;2.87;2.67;;;;;;;;;;521868;28;1305;-72
2023/11/28 00:04:10;;;;;;;3.08;2.78;;;;;;;;;;521851;28;898;-72
2023/11/28 00:04:26;;;;;;;3.00;2.70;;;;;;;;;;519714;28;1299;-73
2023/11/28 00:04:41;;;;;;;2.90;2.60;;;;;;;;;;519217;28;1721;-72
2023/11/28 00:04:56;;;;;;;3.15;2.80;;;;;;;;;;519619;28;910;-72
2023/11/28 00:05:12;;;;;;;3.10;2.80;;;;;;;;;;520093;28;907;-73
2023/11/28 00:05:27;;;;;;;2.83;2.60;;;;;;;;;;521911;28;1139;-72
2023/11/28 00:05:42;;;;;;;2.80;2.60;;;;;;;;;;521655;28;1022;-72
2023/11/28 00:05:58;;;;;;;2.97;2.67;;;;;;;;;;521925;28;1136;-72
2023/11/28 00:06:20;;;;;;;2.80;2.53;;;;;;;;;;521891;28;1116;-73
2023/11/28 00:06:35;;;;;;;2.70;2.50;;;;;;;;;;523771;28;1278;-72
2023/11/28 00:06:52;;;;;;;2.73;2.53;;;;;;;;;;523806;28;933;-72
2023/11/28 00:07:07;;;;;;;2.70;2.50;;;;;;;;;;523961;28;929;-72
2023/11/28 00:07:23;;;;;;;2.53;2.33;;;;;;;;;;523889;28;1044;-72
2023/11/28 00:07:38;;;;;;;2.60;2.40;;;;;;;;;;521732;28;1215;-73
2023/11/28 00:07:53;;;;;;;2.60;2.40;;;;;;;;;;521753;28;1044;-73
2023/11/28 00:08:09;;;;;;;2.73;2.50;;;;;;;;;;522348;28;1363;-72
2023/11/28 00:08:26;;;;;;;2.70;2.50;;;;;;;;;;523237;28;1131;-72
2023/11/28 00:08:41;;;;;;;2.70;2.50;;;;;;;;;;521737;28;855;-72
2023/11/28 00:08:57;;;;;;;2.77;2.57;;;;;;;;;;521548;28;1281;-72
2023/11/28 00:09:12;;;;;;;2.72;2.53;;;;;;;;;;521804;28;906;-72
2023/11/28 00:09:27;;;;;;;2.70;2.50;;;;;;;;;;520091;28;1263;-72
2023/11/28 00:09:44;;;;;;;2.80;2.60;;;;;;;;;;521801;28;957;-72
2023/11/28 00:10:00;;;;;;;2.65;2.45;;;;;;;;;;523242;28;1955;-73
2023/11/28 00:10:15;;;;;;;2.63;2.42;;;;;;;;;;521644;28;1236;-72
2023/11/28 00:10:30;;;;;;;2.90;2.60;;;;;;;;;;520340;28;1135;-73
2023/11/28 00:10:47;;;;;;;2.80;2.60;;;;;;;;;;519410;28;894;-72
2023/11/28 00:11:03;;;;;;;2.72;2.53;;;;;;;;;;519440;28;1179;-72
2023/11/28 00:11:19;;;;;;;2.75;2.50;;;;;;;;;;520225;28;1454;-72
2023/11/28 00:11:34;;;;;;;3.28;2.70;;;;;;;;;;521567;28;1056;-72
2023/11/28 00:11:52;;;;;;;3.07;2.60;;;;;;;;;;521815;28;978;-72
2023/11/28 00:12:08;;;;;;;3.05;2.63;;;;;;;;;;521744;28;883;-72
2023/11/28 00:12:24;;;;;;;2.88;2.60;;;;;;;;;;522135;28;1700;-72
2023/11/28 00:12:39;;;;;;;2.80;2.60;;;;;;;;;;523972;28;949;-72
2023/11/28 00:12:56;;;;;;;2.90;2.70;;;;;;;;;;524192;28;987;-72
2023/11/28 00:13:12;;;;;;;3.10;2.80;;;;;;;;;;522000;28;1841;-72
2023/11/28 00:13:29;;;;;;;3.05;2.75;;;;;;;;;;524752;28;985;-72
2023/11/28 00:13:45;;;;;;;3.10;2.80;;;;;;;;;;522194;28;1965;-72
2023/11/28 00:14:00;;;;;;;3.33;3.03;;;;;;;;;;521228;28;1048;-72
2023/11/28 00:14:15;;;;;;;3.33;3.00;;;;;;;;;;521552;28;1315;-72
2023/11/28 00:14:31;;;;;;;3.03;2.72;;;;;;;;;;521984;28;1766;-72
2023/11/28 00:14:47;;;;;;;2.90;2.60;;;;;;;;;;520194;28;1843;-72
2023/11/28 00:15:02;;;;;;;2.97;2.67;;;;;;;;;;519701;28;1729;-72
2023/11/28 00:15:17;;;;;;;3.10;2.80;;;;;;;;;;520022;28;1382;-72
2023/11/28 00:15:33;;;;;;;3.33;2.80;;;;;;;;;;521977;28;1096;-73
2023/11/28 00:15:48;;;;;;;3.20;2.70;;;;;;;;;;523788;28;799;-72
2023/11/28 00:16:04;;;;;;;2.97;2.67;;;;;;;;;;523762;28;1139;-72
2023/11/28 00:16:19;;;;;;;3.00;2.70;;;;;;;;;;523667;28;1005;-72
2023/11/28 00:16:34;;;;;;;2.65;2.45;;;;;;;;;;521991;28;1363;-72
2023/11/28 00:16:50;;;;;;;2.90;2.50;;;;;;;;;;523942;28;850;-72
2023/11/28 00:17:05;;;;;;;3.10;2.57;;;;;;;;;;521759;28;1285;-73
2023/11/28 00:17:20;;;;;;;2.60;2.40;;;;;;;;;;521585;28;826;-72
2023/11/28 00:17:36;;;;;;;2.70;2.50;;;;;;;;;;519658;28;1277;-72
2023/11/28 00:17:53;;;;;;;2.83;2.60;;;;;;;;;;519668;28;993;-72
2023/11/28 00:18:08;;;;;;;2.88;2.60;;;;;;;;;;519396;28;1361;-72
2023/11/28 00:18:24;;;;;;;2.90;2.60;;;;;;;;;;521512;28;1152;-72
2023/11/28 00:18:39;;;;;;;2.90;2.60;;;;;;;;;;520565;28;1779;-73
2023/11/28 00:18:55;;;;;;;2.92;2.58;;;;;;;;;;521790;28;1207;-72
2023/11/28 00:19:11;;;;;;;2.80;2.50;;;;;;;;;;525035;28;845;-72
2023/11/28 00:19:26;;;;;;;2.95;2.60;;;;;;;;;;523686;28;1052;-72
2023/11/28 00:19:42;;;;;;;3.00;2.60;;;;;;;;;;523788;28;1301;-72
2023/11/28 00:19:57;;;;;;;2.73;2.47;;;;;;;;;;523953;28;1075;-72
2023/11/28 00:20:12;;;;;;;2.78;2.47;;;;;;;;;;521770;28;1278;-72
2023/11/28 00:20:28;;;;;;;2.87;2.50;;;;;;;;;;521549;28;1075;-72
2023/11/28 00:20:43;;;;;;;2.70;2.50;;;;;;;;;;521686;28;895;-72
2023/11/28 00:20:58;;;;;;;2.58;2.38;;;;;;;;;;521954;28;863;-72
2023/11/28 00:21:14;;;;;;;2.73;2.53;;;;;;;;;;521861;28;1045;-72
2023/11/28 00:21:29;;;;;;;2.90;2.60;;;;;;;;;;521481;28;1124;-72
2023/11/28 00:21:45;;;;;;;2.63;2.43;;;;;;;;;;519719;28;1160;-72
2023/11/28 00:22:00;;;;;;;2.63;2.42;;;;;;;;;;517687;28;1586;-73
2023/11/28 00:22:15;;;;;;;2.60;2.40;;;;;;;;;;519453;28;1360;-73
2023/11/28 00:22:31;;;;;;;2.60;2.40;;;;;;;;;;519704;28;930;-73
2023/11/28 00:22:46;;;;;;;2.63;2.42;;;;;;;;;;519911;28;925;-72
2023/11/28 00:23:01;;;;;;;2.70;2.50;;;;;;;;;;519828;28;906;-72
2023/11/28 00:23:17;;;;;;;2.67;2.47;;;;;;;;;;521759;28;1344;-73
2023/11/28 00:23:32;;;;;;;2.78;2.58;;;;;;;;;;519210;28;1295;-72
2023/11/28 00:23:47;;;;;;;2.93;2.67;;;;;;;;;;517824;28;862;-72
2023/11/28 00:24:03;;;;;;;2.83;2.60;;;;;;;;;;519394;28;949;-73
2023/11/28 00:24:18;;;;;;;2.63;2.42;;;;;;;;;;519737;28;1179;-72
2023/11/28 00:24:33;;;;;;;2.60;2.40;;;;;;;;;;521301;28;1121;-72
2023/11/28 00:24:48;;;;;;;2.80;2.60;;;;;;;;;;521951;28;922;-72
2023/11/28 00:25:04;;;;;;;2.67;2.47;;;;;;;;;;521636;28;1139;-72
2023/11/28 00:25:20;;;;;;;2.60;2.40;;;;;;;;;;522096;28;883;-73
2023/11/28 00:25:35;;;;;;;2.60;2.40;;;;;;;;;;521661;28;1590;-73
2023/11/28 00:25:50;;;;;;;2.80;2.50;;;;;;;;;;521385;28;1731;-72
2023/11/28 00:26:05;;;;;;;2.73;2.50;;;;;;;;;;523655;28;1312;-72
2023/11/28 00:26:21;;;;;;;2.60;2.40;;;;;;;;;;521541;28;1253;-72
2023/11/28 00:26:36;;;;;;;2.70;2.50;;;;;;;;;;521752;28;1112;-72
2023/11/28 00:26:51;;;;;;;2.83;2.50;;;;;;;;;;521616;28;1137;-72
2023/11/28 00:27:08;;;;;;;2.88;2.50;;;;;;;;;;521680;28;961;-72
2023/11/28 00:27:23;;;;;;;2.88;2.60;;;;;;;;;;521969;28;1386;-72
2023/11/28 00:27:38;;;;;;;2.70;2.50;;;;;;;;;;523926;28;795;-72
2023/11/28 00:27:54;;;;;;;2.53;2.33;;;;;;;;;;520316;28;1240;-72
2023/11/28 00:28:09;;;;;;;2.70;2.50;;;;;;;;;;520613;28;1398;-73
2023/11/28 00:28:25;;;;;;;2.80;2.50;;;;;;;;;;522731;28;1346;-72
2023/11/28 00:28:40;;;;;;;2.80;2.50;;;;;;;;;;523057;28;867;-72
2023/11/28 00:28:56;;;;;;;2.55;2.35;;;;;;;;;;518973;28;1352;-72
2023/11/28 00:29:11;;;;;;;2.50;2.30;;;;;;;;;;519677;28;970;-72
2023/11/28 00:29:26;;;;;;;2.80;2.50;;;;;;;;;;520469;28;1030;-72
2023/11/28 00:29:41;;;;;;;2.60;2.40;;;;;;;;;;522100;28;971;-72
2023/11/28 00:29:57;;;;;;;2.70;2.50;;;;;;;;;;523749;28;1967;-72
2023/11/28 00:30:14;;;;;;;2.63;2.43;;;;;;;;;;523996;28;821;-72
2023/11/28 00:30:30;;;;;;;2.45;2.25;;;;;;;;;;525160;28;1237;-72
2023/11/28 00:30:45;;;;;;;2.60;2.40;;;;;;;;;;522490;28;2203;-72
2023/11/28 00:31:01;;;;;;;2.70;2.50;;;;;;;;;;523781;28;2188;-72
2023/11/28 00:31:16;;;;;;;2.80;2.43;;;;;;;;;;523067;28;2072;-72
2023/11/28 00:31:31;;;;;;;2.55;2.30;;;;;;;;;;526201;28;1156;-73
2023/11/28 00:31:47;;;;;;;2.50;2.30;;;;;;;;;;523710;28;1076;-72
2023/11/28 00:32:03;;;;;;;2.60;2.40;;;;;;;;;;523634;28;978;-72
2023/11/28 00:32:19;;;;;;;2.80;2.60;;;;;;;;;;521166;28;926;-72
2023/11/28 00:32:35;;;;;;;2.63;2.43;;;;;;;;;;521383;28;950;-72
2023/11/28 00:32:50;;;;;;;2.53;2.33;;;;;;;;;;522841;28;1317;-72
2023/11/28 00:33:05;;;;;;;2.60;2.40;;;;;;;;;;523949;28;981;-73
2023/11/28 00:33:21;;;;;;;2.50;2.30;;;;;;;;;;522016;28;862;-72
2023/11/28 00:33:36;;;;;;;2.30;2.10;;;;;;;;;;522155;28;1215;-72
2023/11/28 00:33:51;;;;;;;2.40;2.20;;;;;;;;;;523891;28;763;-72
2023/11/28 00:34:07;;;;;;;2.47;2.28;;;;;;;;;;523386;28;1433;-72
2023/11/28 00:34:24;;;;;;;2.43;2.23;;;;;;;;;;521904;28;1076;-72
2023/11/28 00:34:39;;;;;;;2.50;2.30;;;;;;;;;;521780;28;1335;-72
2023/11/28 00:34:54;;;;;;;2.40;2.20;;;;;;;;;;521917;28;846;-72
2023/11/28 00:35:10;;;;;;;2.40;2.20;;;;;;;;;;518772;28;891;-72
2023/11/28 00:35:25;;;;;;;2.60;2.40;;;;;;;;;;517761;28;1431;-72
2023/11/28 00:35:40;;;;;;;2.70;2.50;;;;;;;;;;520176;28;1278;-72
2023/11/28 00:35:55;;;;;;;2.57;2.37;;;;;;;;;;519800;28;909;-72
2023/11/28 00:36:15;;;;;;;2.50;2.30;;;;;;;;;;519545;28;929;-72
2023/11/28 00:36:30;;;;;;;2.42;2.22;;;;;;;;;;520774;28;886;-72
2023/11/28 00:36:45;;;;;;;2.25;2.05;;;;;;;;;;521907;28;767;-72
2023/11/28 00:37:01;;;;;;;2.40;2.20;;;;;;;;;;520822;28;1132;-72
2023/11/28 00:37:16;;;;;;;2.30;2.10;;;;;;;;;;522392;28;1172;-72
2023/11/28 00:37:32;;;;;;;2.40;2.20;;;;;;;;;;523695;28;1087;-73
2023/11/28 00:37:47;;;;;;;3.13;2.30;;;;;;;;;;524009;28;913;-72
2023/11/28 00:38:03;;;;;;;2.90;2.43;;;;;;;;;;523443;28;2622;-72
2023/11/28 00:38:18;;;;;;;2.60;2.40;;;;;;;;;;522283;28;1924;-72
2023/11/28 00:38:33;;;;;;;2.50;2.30;;;;;;;;;;523952;28;1670;-72
2023/11/28 00:38:49;;;;;;;2.60;2.40;;;;;;;;;;523895;28;1304;-72
2023/11/28 00:39:04;;;;;;;2.53;2.33;;;;;;;;;;523232;28;1324;-71
2023/11/28 00:39:19;;;;;;;2.50;2.30;;;;;;;;;;523336;28;1854;-72
2023/11/28 00:39:35;;;;;;;2.77;2.57;;;;;;;;;;521447;28;969;-72
2023/11/28 00:39:50;;;;;;;2.78;2.58;;;;;;;;;;519773;28;1307;-72
2023/11/28 00:40:08;;;;;;;2.60;2.40;;;;;;;;;;519715;28;838;-72
2023/11/28 00:40:27;;;;;;;2.50;2.30;;;;;;;;;;519518;28;1033;-72
2023/11/28 00:40:44;;;;;;;2.38;2.17;;;;;;;;;;517723;28;925;-72
2023/11/28 00:40:59;;;;;;;2.90;2.30;;;;;;;;;;517234;28;1730;-72
2023/11/28 00:41:14;;;;;;;3.10;2.40;;;;;;;;;;516062;28;1151;-72
2023/11/28 00:41:32;;;;;;;2.60;2.40;;;;;;;;;;517585;28;1014;-72
2023/11/28 00:41:47;;;;;;;2.50;2.30;;;;;;;;;;517691;28;984;-72
2023/11/28 00:42:03;;;;;;;2.30;2.10;;;;;;;;;;517024;28;1078;-72
2023/11/28 00:42:19;;;;;;;2.42;2.22;;;;;;;;;;515563;28;827;-72
2023/11/28 00:42:34;;;;;;;2.40;2.20;;;;;;;;;;518758;28;1090;-71
2023/11/28 00:42:49;;;;;;;2.43;2.23;;;;;;;;;;519211;28;1319;-72
2023/11/28 00:43:04;;;;;;;2.83;2.33;;;;;;;;;;519869;28;1266;-72
2023/11/28 00:43:20;;;;;;;2.60;2.30;;;;;;;;;;521725;28;984;-72
2023/11/28 00:43:35;;;;;;;2.57;2.37;;;;;;;;;;523634;28;1030;-72
2023/11/28 00:43:52;;;;;;;2.40;2.20;;;;;;;;;;523161;28;873;-72
2023/11/28 00:44:09;;;;;;;2.30;2.10;;;;;;;;;;521509;28;854;-72
2023/11/28 00:44:24;;;;;;;2.40;2.20;;;;;;;;;;521556;28;1151;-72
2023/11/28 00:44:41;;;;;;;2.40;2.20;;;;;;;;;;520204;28;1375;-72
2023/11/28 00:44:56;;;;;;;2.30;2.10;;;;;;;;;;521931;28;1102;-72
2023/11/28 00:45:12;;;;;;;2.33;2.10;;;;;;;;;;521715;28;807;-72
2023/11/28 00:45:28;;;;;;;2.40;2.20;;;;;;;;;;521652;28;1076;-72
2023/11/28 00:45:43;;;;;;;2.35;2.15;;;;;;;;;;521877;28;902;-72
2023/11/28 00:45:59;;;;;;;2.40;2.20;;;;;;;;;;521838;28;889;-72
2023/11/28 00:46:18;;;;;;;2.50;2.30;;;;;;;;;;521818;28;882;-72
2023/11/28 00:46:33;;;;;;;2.40;2.20;;;;;;;;;;522631;28;1104;-72
2023/11/28 00:46:49;;;;;;;2.20;2.00;;;;;;;;;;523857;28;1282;-72
2023/11/28 00:47:05;;;;;;;2.30;2.10;;;;;;;;;;523960;28;973;-72
2023/11/28 00:47:21;;;;;;;2.40;2.20;;;;;;;;;;522783;28;933;-72
2023/11/28 00:47:39;;;;;;;2.35;2.15;;;;;;;;;;523812;28;1500;-72
2023/11/28 00:47:54;;;;;;;2.40;2.20;;;;;;;;;;523886;28;913;-72
2023/11/28 00:48:09;;;;;;;2.30;2.10;;;;;;;;;;523675;28;901;-72
2023/11/28 00:48:25;;;;;;;2.20;2.00;;;;;;;;;;524126;28;1063;-72
2023/11/28 00:48:41;;;;;;;2.38;2.17;;;;;;;;;;523669;28;1835;-71
2023/11/28 00:48:56;;;;;;;2.57;2.37;;;;;;;;;;522467;28;818;-72
2023/11/28 00:49:13;;;;;;;2.50;2.30;;;;;;;;;;523959;28;885;-71
2023/11/28 00:49:28;;;;;;;2.47;2.28;;;;;;;;;;523872;28;1155;-72
2023/11/28 00:49:44;;;;;;;2.50;2.30;;;;;;;;;;524010;28;832;-72
2023/11/28 00:49:59;;;;;;;2.50;2.30;;;;;;;;;;523931;28;1918;-72
2023/11/28 00:50:15;;;;;;;2.43;2.23;;;;;;;;;;521683;28;1373;-72
2023/11/28 00:50:31;;;;;;;2.47;2.28;;;;;;;;;;521659;28;1092;-72
2023/11/28 00:50:46;;;;;;;3.00;2.57;;;;;;;;;;521724;28;790;-72
2023/11/28 00:51:04;;;;;;;3.10;2.73;;;;;;;;;;521620;28;1305;-72
2023/11/28 00:51:20;;;;;;;3.03;2.80;;;;;;;;;;519642;28;2098;-72
2023/11/28 00:51:35;;;;;;;3.00;2.73;;;;;;;;;;519595;28;1069;-72
2023/11/28 00:51:53;;;;;;;2.90;2.60;;;;;;;;;;519426;28;1301;-72
2023/11/28 00:52:10;;;;;;;2.83;2.63;;;;;;;;;;520805;28;902;-72
2023/11/28 00:52:25;;;;;;;3.08;2.80;;;;;;;;;;521662;28;1104;-72
2023/11/28 00:52:40;;;;;;;2.80;2.60;;;;;;;;;;521730;28;806;-72
2023/11/28 00:52:56;;;;;;;2.80;2.60;;;;;;;;;;521703;28;849;-72
2023/11/28 00:53:11;;;;;;;3.10;2.80;;;;;;;;;;522641;28;869;-72
2023/11/28 00:53:26;;;;;;;3.13;2.83;;;;;;;;;;524032;28;1060;-72
2023/11/28 00:53:42;;;;;;;3.10;2.80;;;;;;;;;;524019;28;863;-72
2023/11/28 00:53:57;;;;;;;3.00;2.70;;;;;;;;;;523583;28;846;-72
2023/11/28 00:54:12;;;;;;;3.00;2.70;;;;;;;;;;521441;28;1168;-72
2023/11/28 00:54:27;;;;;;;3.20;2.90;;;;;;;;;;522568;28;1080;-72
2023/11/28 00:54:43;;;;;;;3.30;3.00;;;;;;;;;;523655;28;811;-73
2023/11/28 00:54:59;;;;;;;3.35;3.05;;;;;;;;;;523896;28;874;-72
2023/11/28 00:55:17;;;;;;;3.22;2.92;;;;;;;;;;523969;28;814;-72
2023/11/28 00:55:32;;;;;;;2.90;2.70;;;;;;;;;;523587;28;1190;-72
2023/11/28 00:55:47;;;;;;;2.93;2.73;;;;;;;;;;523966;28;929;-72
2023/11/28 00:56:03;;;;;;;3.17;2.87;;;;;;;;;;524546;28;922;-72
2023/11/28 00:56:20;;;;;;;3.30;3.00;;;;;;;;;;526029;28;920;-72
2023/11/28 00:56:35;;;;;;;3.25;2.95;;;;;;;;;;524009;28;1221;-72
2023/11/28 00:56:50;;;;;;;3.13;2.83;;;;;;;;;;522288;28;1290;-72
2023/11/28 00:57:07;;;;;;;3.30;3.00;;;;;;;;;;523777;28;1159;-72
2023/11/28 00:57:22;;;;;;;3.35;3.05;;;;;;;;;;523619;28;1116;-72
2023/11/28 00:57:38;;;;;;;3.40;3.10;;;;;;;;;;523864;28;786;-71
2023/11/28 00:57:54;;;;;;;3.58;3.28;;;;;;;;;;523854;28;890;-72
2023/11/28 00:58:09;;;;;;;3.40;3.10;;;;;;;;;;523696;28;949;-72
2023/11/28 00:58:24;;;;;;;3.60;3.30;;;;;;;;;;520573;28;1759;-72
2023/11/28 00:58:40;;;;;;;3.60;3.30;;;;;;;;;;519886;28;1325;-72
2023/11/28 00:58:55;;;;;;;3.47;3.17;;;;;;;;;;519623;28;1135;-72
2023/11/28 00:59:11;;;;;;;3.80;3.40;;;;;;;;;;522116;28;1289;-72
2023/11/28 00:59:26;;;;;;;3.63;3.33;;;;;;;;;;520974;28;874;-72
2023/11/28 00:59:42;;;;;;;3.45;3.15;;;;;;;;;;521885;28;925;-72
2023/11/28 00:59:57;;;;;;;3.40;3.10;;;;;;;;;;521825;28;772;-72
2023/11/28 01:00:13;;;;;;;3.40;3.10;;;;;;;;;;521799;28;795;-72
2023/11/28 01:00:28;;;;;;;3.70;3.40;;;;;;;;;;521907;28;946;-72
2023/11/28 01:00:44;;;;;;;3.95;3.53;;;;;;;;;;524017;28;791;-72
2023/11/28 01:00:59;;;;;;;3.80;3.40;;;;;;;;;;521647;28;875;-72
2023/11/28 01:01:16;;;;;;;3.47;3.17;;;;;;;;;;521735;28;921;-72
2023/11/28 01:01:31;;;;;;;3.60;3.30;;;;;;;;;;523190;28;1073;-72
2023/11/28 01:01:46;;;;;;;3.88;3.50;;;;;;;;;;523831;28;814;-72
2023/11/28 01:02:05;;;;;;;3.90;3.50;;;;;;;;;;521052;28;1995;-72
2023/11/28 01:02:21;;;;;;;4.00;3.60;;;;;;;;;;519362;28;1114;-72
2023/11/28 01:02:37;;;;;;;3.90;3.50;;;;;;;;;;519659;28;902;-72
2023/11/28 01:02:53;;;;;;;3.80;3.40;;;;;;;;;;519831;28;929;-72
2023/11/28 01:03:08;;;;;;;3.80;3.50;;;;;;;;;;520067;28;897;-72
2023/11/28 01:03:23;;;;;;;3.80;3.50;;;;;;;;;;521163;28;1290;-72
2023/11/28 01:03:39;;;;;;;4.00;3.60;;;;;;;;;;522675;28;1369;-72
2023/11/28 01:03:54;;;;;;;4.20;3.80;;;;;;;;;;523267;28;1380;-72
2023/11/28 01:04:09;;;;;;;4.10;3.70;;;;;;;;;;522405;28;1415;-72
2023/11/28 01:04:24;;;;;;;4.10;3.70;;;;;;;;;;522953;28;1337;-72
2023/11/28 01:04:40;;;;;;;4.10;3.70;;;;;;;;;;522334;28;1401;-72
2023/11/28 01:04:55;;;;;;;4.17;3.77;;;;;;;;;;520422;28;1412;-72
2023/11/28 01:05:11;;;;;;;4.15;3.75;;;;;;;;;;520072;28;1404;-72
2023/11/28 01:05:27;;;;;;;3.97;3.67;;;;;;;;;;517388;28;1198;-72
2023/11/28 01:05:42;;;;;;;4.03;3.67;;;;;;;;;;518893;28;1389;-72
2023/11/28 01:05:57;;;;;;;4.00;3.60;;;;;;;;;;519303;28;1368;-72
2023/11/28 01:06:13;;;;;;;4.07;3.67;;;;;;;;;;520936;28;1326;-72
2023/11/28 01:06:30;;;;;;;4.40;4.00;;;;;;;;;;518712;28;1332;-72
2023/11/28 01:06:45;;;;;;;4.40;4.00;;;;;;;;;;519297;28;1326;-72
2023/11/28 01:07:02;;;;;;;4.30;3.90;;;;;;;;;;520187;28;1345;-72
2023/11/28 01:07:17;;;;;;;4.50;3.90;;;;;;;;;;520048;28;1310;-72
2023/11/28 01:07:32;;;;;;;4.32;3.88;;;;;;;;;;522669;28;1059;-72
2023/11/28 01:07:48;;;;;;;4.30;3.87;;;;;;;;;;522955;28;1425;-72
2023/11/28 01:08:03;;;;;;;4.57;3.90;;;;;;;;;;522411;28;1297;-72
2023/11/28 01:08:18;;;;;;;4.20;3.80;;;;;;;;;;521145;28;1333;-72
2023/11/28 01:08:34;;;;;;;4.33;3.93;;;;;;;;;;521987;28;1120;-72
2023/11/28 01:08:50;;;;;;;4.60;4.20;;;;;;;;;;522604;28;1305;-72
2023/11/28 01:09:05;;;;;;;4.55;4.10;;;;;;;;;;521090;28;1718;-72
2023/11/28 01:09:20;;;;;;;5.00;4.20;;;;;;;;;;521985;28;1297;-73
2023/11/28 01:09:36;;;;;;;4.90;4.40;;;;;;;;;;521335;28;1143;-72
2023/11/28 01:09:52;;;;;;;5.03;4.57;;;;;;;;;;519900;28;1321;-72
2023/11/28 01:10:08;;;;;;;5.30;4.80;;;;;;;;;;520379;28;1916;-72
2023/11/28 01:10:23;;;;;;;5.15;4.65;;;;;;;;;;522280;28;1154;-72
2023/11/28 01:10:38;;;;;;;5.03;4.53;;;;;;;;;;524732;28;1194;-72
2023/11/28 01:10:53;;;;;;;5.10;4.60;;;;;;;;;;525013;28;1300;-72
2023/11/28 01:11:10;;;;;;;5.10;4.60;;;;;;;;;;524412;28;1201;-72
2023/11/28 01:11:25;;;;;;;5.30;4.80;;;;;;;;;;523260;28;1308;-73
2023/11/28 01:11:41;;;;;;;5.93;5.33;;;;;;;;;;522334;28;1484;-72
2023/11/28 01:11:57;;;;;;;6.28;5.68;;;;;;;;;;522505;28;1309;-73
2023/11/28 01:12:12;;;;;;;6.40;5.80;;;;;;;;;;522503;28;1353;-72
2023/11/28 01:12:27;;;;;;;6.47;5.87;;;;;;;;;;522510;28;1376;-72
2023/11/28 01:12:43;;;;;;;6.20;5.60;;;;;;;;;;522370;28;1376;-72
2023/11/28 01:12:58;;;;;;;6.10;5.50;;;;;;;;;;521809;28;1795;-71
2023/11/28 01:13:14;;;;;;;6.43;5.83;;;;;;;;;;522343;28;1345;-72
2023/11/28 01:13:29;;;;;;;6.90;6.20;;;;;;;;;;520941;28;1001;-72
2023/11/28 01:13:45;;;;;;;7.07;6.22;;;;;;;;;;522912;28;1356;-72
2023/11/28 01:14:00;;;;;;;6.87;6.10;;;;;;;;;;521917;28;1107;-72
2023/11/28 01:14:15;;;;;;;7.53;6.73;;;;;;;;;;522310;28;1332;-72
2023/11/28 01:14:31;;;;;;;7.80;7.05;;;;;;;;;;522212;28;1103;-72
2023/11/28 01:14:46;;;;;;;7.33;6.63;;;;;;;;;;521325;28;1266;-72
2023/11/28 01:15:01;;;;;;;7.00;6.30;;;;;;;;;;520873;28;1381;-72
2023/11/28 01:15:17;;;;;;;7.43;6.72;;;;;;;;;;521034;28;1356;-72
2023/11/28 01:15:33;;;;;;;8.25;7.45;;;;;;;;;;519723;28;1496;-72
2023/11/28 01:15:48;;;;;;;8.17;7.37;;;;;;;;;;518527;28;1300;-72
2023/11/28 01:16:04;;;;;;;7.83;7.03;;;;;;;;;;517494;28;1588;-72
2023/11/28 01:16:19;;;;;;;7.60;6.90;;;;;;;;;;517458;28;1045;-72
2023/11/28 01:16:34;;;;;;;8.17;7.37;;;;;;;;;;519074;28;1299;-72
2023/11/28 01:16:50;;;;;;;8.63;7.72;;;;;;;;;;519986;28;807;-72
2023/11/28 01:17:06;;;;;;;8.23;7.43;;;;;;;;;;522180;28;1172;-72
2023/11/28 01:17:21;;;;;;;8.40;7.60;;;;;;;;;;523706;28;1047;-72
2023/11/28 01:17:37;;;;;;;8.40;7.60;;;;;;;;;;521672;28;1383;-72
2023/11/28 01:17:52;;;;;;;8.30;7.50;;;;;;;;;;521642;28;862;-72
2023/11/28 01:18:07;;;;;;;8.33;7.53;;;;;;;;;;521496;28;1415;-72
2023/11/28 01:18:22;;;;;;;8.13;7.32;;;;;;;;;;521513;28;1092;-71
2023/11/28 01:18:38;;;;;;;8.00;7.20;;;;;;;;;;521910;28;807;-72
2023/11/28 01:18:53;;;;;;;8.07;7.27;;;;;;;;;;521597;28;947;-72
2023/11/28 01:19:09;;;;;;;7.95;7.15;;;;;;;;;;521392;28;1139;-72
2023/11/28 01:19:25;;;;;;;7.60;6.80;;;;;;;;;;521739;28;1036;-72
2023/11/28 01:19:40;;;;;;;7.17;6.47;;;;;;;;;;524550;28;1368;-71
2023/11/28 01:19:55;;;;;;;6.90;6.30;;;;;;;;;;523584;28;1309;-72
2023/11/28 01:20:11;;;;;;;6.70;6.10;;;;;;;;;;523831;28;779;-71
2023/11/28 01:20:27;;;;;;;6.07;5.47;;;;;;;;;;523615;28;1028;-72
2023/11/28 01:20:43;;;;;;;5.50;5.00;;;;;;;;;;523877;28;890;-72
2023/11/28 01:20:58;;;;;;;5.23;4.73;;;;;;;;;;521421;28;2162;-72
2023/11/28 01:21:13;;;;;;;4.68;4.28;;;;;;;;;;521795;28;913;-72
2023/11/28 01:21:29;;;;;;;4.60;4.20;;;;;;;;;;519492;28;1405;-72
2023/11/28 01:21:44;;;;;;;4.77;4.27;;;;;;;;;;517927;28;1062;-72
2023/11/28 01:22:01;;;;;;;4.70;3.90;;;;;;;;;;518540;28;950;-71
2023/11/28 01:22:17;;;;;;;4.28;3.80;;;;;;;;;;519734;28;1086;-72
2023/11/28 01:22:32;;;;;;;3.90;3.50;;;;;;;;;;515860;28;1386;-72
2023/11/28 01:22:47;;;;;;;3.70;3.40;;;;;;;;;;515595;28;1094;-72
2023/11/28 01:23:03;;;;;;;3.80;3.50;;;;;;;;;;515961;28;1414;-71
2023/11/28 01:23:19;;;;;;;3.80;3.50;;;;;;;;;;518260;28;855;-72
2023/11/28 01:23:34;;;;;;;3.90;3.50;;;;;;;;;;519079;28;910;-71
2023/11/28 01:23:49;;;;;;;4.23;3.53;;;;;;;;;;520278;28;902;-72
2023/11/28 01:24:05;;;;;;;4.40;3.53;;;;;;;;;;521251;28;989;-71
2023/11/28 01:24:20;;;;;;;4.05;3.65;;;;;;;;;;520152;28;1163;-72
2023/11/28 01:24:35;;;;;;;4.20;3.80;;;;;;;;;;523042;28;1143;-72
2023/11/28 01:24:50;;;;;;;4.10;3.70;;;;;;;;;;521686;28;971;-71
2023/11/28 01:25:06;;;;;;;4.30;3.90;;;;;;;;;;521819;28;1177;-72
2023/11/28 01:25:21;;;;;;;4.50;4.10;;;;;;;;;;521758;28;1032;-72
2023/11/28 01:25:37;;;;;;;4.32;3.92;;;;;;;;;;523738;28;1075;-71
2023/11/28 01:25:52;;;;;;;4.17;3.77;;;;;;;;;;521512;28;1160;-71
2023/11/28 01:26:07;;;;;;;4.10;3.60;;;;;;;;;;521782;28;835;-72
2023/11/28 01:26:22;;;;;;;3.80;3.40;;;;;;;;;;523405;28;1056;-71
2023/11/28 01:26:38;;;;;;;3.70;3.40;;;;;;;;;;521810;28;819;-72
2023/11/28 01:26:53;;;;;;;4.00;3.60;;;;;;;;;;521581;28;811;-71
2023/11/28 01:27:09;;;;;;;4.00;3.60;;;;;;;;;;522541;28;1281;-72
2023/11/28 01:27:24;;;;;;;4.03;3.50;;;;;;;;;;523677;28;1130;-72
2023/11/28 01:27:40;;;;;;;4.10;3.50;;;;;;;;;;522697;28;1748;-72
2023/11/28 01:27:55;;;;;;;3.97;3.57;;;;;;;;;;524083;28;822;-71
2023/11/28 01:28:10;;;;;;;3.87;3.33;;;;;;;;;;523521;28;1844;-72
2023/11/28 01:28:26;;;;;;;3.60;2.88;;;;;;;;;;523764;28;1048;-72
2023/11/28 01:28:41;;;;;;;3.20;2.80;;;;;;;;;;524461;28;780;-71
2023/11/28 01:28:56;;;;;;;3.10;2.80;;;;;;;;;;522429;28;1278;-71
2023/11/28 01:29:12;;;;;;;3.20;2.90;;;;;;;;;;523109;28;1169;-71
2023/11/28 01:29:27;;;;;;;3.30;2.93;;;;;;;;;;521306;28;1341;-72
2023/11/28 01:29:42;;;;;;;3.33;2.70;;;;;;;;;;520955;28;1786;-71
2023/11/28 01:29:57;;;;;;;3.10;2.42;;;;;;;;;;518438;28;1284;-71
2023/11/28 01:30:13;;;;;;;2.67;2.40;;;;;;;;;;519419;28;1972;-72
2023/11/28 01:30:29;;;;;;;2.53;2.33;;;;;;;;;;519218;28;1363;-71
2023/11/28 01:30:44;;;;;;;2.30;2.10;;;;;;;;;;519659;28;1332;-71
2023/11/28 01:30:59;;;;;;;2.30;2.10;;;;;;;;;;519821;28;1144;-71
2023/11/28 01:31:14;;;;;;;2.33;2.13;;;;;;;;;;519511;28;918;-71
2023/11/28 01:31:30;;;;;;;2.40;2.20;;;;;;;;;;519533;28;1040;-71
2023/11/28 01:31:46;;;;;;;2.53;2.30;;;;;;;;;;519972;28;1370;-71
2023/11/28 01:32:03;;;;;;;2.33;2.13;;;;;;;;;;521463;28;1279;-71
2023/11/28 01:32:18;;;;;;;2.05;1.85;;;;;;;;;;521576;28;855;-72
2023/11/28 01:32:33;;;;;;;1.97;1.77;;;;;;;;;;521372;28;1116;-71
2023/11/28 01:32:48;;;;;;;1.83;1.70;;;;;;;;;;519215;28;1402;-72
2023/11/28 01:33:04;;;;;;;2.03;1.77;;;;;;;;;;518119;28;741;-71
2023/11/28 01:33:19;;;;;;;2.10;1.90;;;;;;;;;;519656;28;1079;-71
2023/11/28 01:33:35;;;;;;;1.92;1.83;;;;;;;;;;519570;28;1041;-71
2023/11/28 01:33:50;;;;;;;2.00;1.80;;;;;;;;;;520054;28;795;-71
2023/11/28 01:34:06;;;;;;;1.92;1.73;;;;;;;;;;518961;28;1366;-72
2023/11/28 01:34:21;;;;;;;1.80;1.70;;;;;;;;;;519493;28;1002;-71
2023/11/28 01:34:37;;;;;;;2.10;1.90;;;;;;;;;;520349;28;1182;-71
2023/11/28 01:34:52;;;;;;;2.10;1.90;;;;;;;;;;520655;28;2033;-71
2023/11/28 01:35:08;;;;;;;2.00;1.80;;;;;;;;;;521756;28;877;-71
2023/11/28 01:35:23;;;;;;;2.00;1.80;;;;;;;;;;521606;28;997;-71
2023/11/28 01:35:39;;;;;;;1.90;1.70;;;;;;;;;;520910;28;1837;-71
2023/11/28 01:35:54;;;;;;;1.90;1.70;;;;;;;;;;521670;28;889;-72
2023/11/28 01:36:10;;;;;;;2.10;1.80;;;;;;;;;;523996;28;1052;-71
2023/11/28 01:36:25;;;;;;;2.00;1.80;;;;;;;;;;524222;28;1036;-71
2023/11/28 01:36:41;;;;;;;2.10;1.90;;;;;;;;;;525900;28;894;-71
2023/11/28 01:36:56;;;;;;;2.35;2.15;;;;;;;;;;524790;28;957;-71